sensor_id;sensor_type;location;lat;lon;timestamp;temperature;humidity
6843;DHT22;3460;52.028;8.916;2023-10-19T00:00:12;8.90;99.90
6843;DHT22;3460;52.028;8.916;2023-10-19T00:02:49;8.90;99.90
6843;DHT22;3460;52.028;8.916;2023-10-19T00:05:18;8.90;99.90
6843;DHT22;3460;52.028;8.916;2023-10-19T00:07:45;8.90;99.90
6843;DHT22;3460;52.028;8.916;2023-10-19T00:10:11;8.80;99.90
6843;DHT22;3460;52.028;8.916;2023-10-19T00:12:41;8.70;99.90
6843;DHT22;3460;52.028;8.916;2023-10-19T00:15:10;8.70;99.90
6843;DHT22;3460;52.028;8.916;2023-10-19T00:17:37;8.70;99.90
6843;DHT22;3460;52.028;8.916;2023-10-19T00:20:06;8.70;99.90
6843;DHT22;3460;52.028;8.916;2023-10-19T00:22:56;8.70;99.90
6843;DHT22;3460;52.028;8.916;2023-10-19T00:25:23;8.60;99.90
6843;DHT22;3460;52.028;8.916;2023-10-19T00:27:51;8.60;99.90
6843;DHT22;3460;52.028;8.916;2023-10-19T00:30:18;8.60;99.90
6843;DHT22;3460;52.028;8.916;2023-10-19T00:32:49;8.60;99.90
6843;DHT22;3460;52.028;8.916;2023-10-19T00:35:16;8.60;99.90
6843;DHT22;3460;52.028;8.916;2023-10-19T00:37:56;8.50;99.90
6843;DHT22;3460;52.028;8.916;2023-10-19T00:40:43;8.50;99.90
6843;DHT22;3460;52.028;8.916;2023-10-19T00:43:12;8.50;99.90
6843;DHT22;3460;52.028;8.916;2023-10-19T00:45:43;8.50;99.90
6843;DHT22;3460;52.028;8.916;2023-10-19T00:48:13;8.50;99.90
6843;DHT22;3460;52.028;8.916;2023-10-19T00:50:40;8.50;99.90
6843;DHT22;3460;52.028;8.916;2023-10-19T00:53:08;8.50;99.90
6843;DHT22;3460;52.028;8.916;2023-10-19T00:55:38;8.50;99.90
6843;DHT22;3460;52.028;8.916;2023-10-19T00:58:07;8.50;99.90
6843;DHT22;3460;52.028;8.916;2023-10-19T01:00:37;8.50;99.90
6843;DHT22;3460;52.028;8.916;2023-10-19T01:03:10;8.50;99.90
6843;DHT22;3460;52.028;8.916;2023-10-19T01:05:43;8.40;99.90
6843;DHT22;3460;52.028;8.916;2023-10-19T01:08:15;8.40;99.90
6843;DHT22;3460;52.028;8.916;2023-10-19T01:10:50;8.30;99.90
6843;DHT22;3460;52.028;8.916;2023-10-19T01:13:19;8.40;99.90
6843;DHT22;3460;52.028;8.916;2023-10-19T01:15:53;8.40;99.90
6843;DHT22;3460;52.028;8.916;2023-10-19T01:18:19;8.40;99.90
6843;DHT22;3460;52.028;8.916;2023-10-19T01:20:47;8.40;99.90
6843;DHT22;3460;52.028;8.916;2023-10-19T01:23:18;8.50;99.90
6843;DHT22;3460;52.028;8.916;2023-10-19T01:25:52;8.50;99.90
6843;DHT22;3460;52.028;8.916;2023-10-19T01:28:27;8.50;99.90
6843;DHT22;3460;52.028;8.916;2023-10-19T01:31:07;8.50;99.90
6843;DHT22;3460;52.028;8.916;2023-10-19T01:33:34;8.50;99.90
6843;DHT22;3460;52.028;8.916;2023-10-19T01:36:02;8.50;99.90
6843;DHT22;3460;52.028;8.916;2023-10-19T01:38:41;8.50;99.90
6843;DHT22;3460;52.028;8.916;2023-10-19T01:41:08;8.40;99.90
6843;DHT22;3460;52.028;8.916;2023-10-19T01:43:41;8.40;99.90
6843;DHT22;3460;52.028;8.916;2023-10-19T01:46:08;8.30;99.90
6843;DHT22;3460;52.028;8.916;2023-10-19T01:48:51;8.30;99.90
6843;DHT22;3460;52.028;8.916;2023-10-19T01:51:21;8.30;99.90
6843;DHT22;3460;52.028;8.916;2023-10-19T01:53:50;8.20;99.90
6843;DHT22;3460;52.028;8.916;2023-10-19T01:56:17;8.20;99.90
6843;DHT22;3460;52.028;8.916;2023-10-19T01:58:46;8.20;99.90
6843;DHT22;3460;52.028;8.916;2023-10-19T02:01:13;8.10;99.90
6843;DHT22;3460;52.028;8.916;2023-10-19T02:03:54;8.20;99.90
6843;DHT22;3460;52.028;8.916;2023-10-19T02:06:25;8.10;99.90
6843;DHT22;3460;52.028;8.916;2023-10-19T02:08:58;8.10;99.90
6843;DHT22;3460;52.028;8.916;2023-10-19T02:11:26;8.10;99.90
6843;DHT22;3460;52.028;8.916;2023-10-19T02:13:56;8.20;99.90
6843;DHT22;3460;52.028;8.916;2023-10-19T02:16:25;8.20;99.90
6843;DHT22;3460;52.028;8.916;2023-10-19T02:18:55;8.20;99.90
6843;DHT22;3460;52.028;8.916;2023-10-19T02:21:21;8.20;99.90
6843;DHT22;3460;52.028;8.916;2023-10-19T02:23:50;8.20;99.90
6843;DHT22;3460;52.028;8.916;2023-10-19T02:26:18;8.20;99.90
6843;DHT22;3460;52.028;8.916;2023-10-19T02:28:48;8.20;99.90
6843;DHT22;3460;52.028;8.916;2023-10-19T02:31:16;8.10;99.90
6843;DHT22;3460;52.028;8.916;2023-10-19T02:33:47;8.20;99.90
6843;DHT22;3460;52.028;8.916;2023-10-19T02:36:17;8.20;99.90
6843;DHT22;3460;52.028;8.916;2023-10-19T02:38:45;8.20;99.90
6843;DHT22;3460;52.028;8.916;2023-10-19T02:41:15;8.20;99.90
6843;DHT22;3460;52.028;8.916;2023-10-19T02:43:43;8.20;99.90
6843;DHT22;3460;52.028;8.916;2023-10-19T02:46:12;8.20;99.90
6843;DHT22;3460;52.028;8.916;2023-10-19T02:48:39;8.20;99.90
6843;DHT22;3460;52.028;8.916;2023-10-19T02:51:10;8.20;99.90
6843;DHT22;3460;52.028;8.916;2023-10-19T02:53:37;8.20;99.90
6843;DHT22;3460;52.028;8.916;2023-10-19T02:56:11;8.20;99.90
6843;DHT22;3460;52.028;8.916;2023-10-19T02:58:43;8.20;99.90
6843;DHT22;3460;52.028;8.916;2023-10-19T03:01:15;8.20;99.90
6843;DHT22;3460;52.028;8.916;2023-10-19T03:03:43;8.20;99.90
6843;DHT22;3460;52.028;8.916;2023-10-19T03:06:12;8.20;99.90
6843;DHT22;3460;52.028;8.916;2023-10-19T03:08:37;8.20;99.90
6843;DHT22;3460;52.028;8.916;2023-10-19T03:11:04;8.20;99.90
6843;DHT22;3460;52.028;8.916;2023-10-19T03:13:30;8.20;99.90
6843;DHT22;3460;52.028;8.916;2023-10-19T03:16:00;8.20;99.90
6843;DHT22;3460;52.028;8.916;2023-10-19T03:18:31;8.20;99.90
6843;DHT22;3460;52.028;8.916;2023-10-19T03:20:58;8.20;99.90
6843;DHT22;3460;52.028;8.916;2023-10-19T03:23:23;8.20;99.90
6843;DHT22;3460;52.028;8.916;2023-10-19T03:25:55;8.20;99.90
6843;DHT22;3460;52.028;8.916;2023-10-19T03:28:36;8.30;99.90
6843;DHT22;3460;52.028;8.916;2023-10-19T03:31:04;8.30;99.90
6843;DHT22;3460;52.028;8.916;2023-10-19T03:33:31;8.30;99.90
6843;DHT22;3460;52.028;8.916;2023-10-19T03:36:02;8.30;99.90
6843;DHT22;3460;52.028;8.916;2023-10-19T03:38:30;8.30;99.90
6843;DHT22;3460;52.028;8.916;2023-10-19T03:41:02;8.30;99.90
6843;DHT22;3460;52.028;8.916;2023-10-19T03:43:32;8.30;99.90
6843;DHT22;3460;52.028;8.916;2023-10-19T03:46:03;8.30;99.90
6843;DHT22;3460;52.028;8.916;2023-10-19T03:48:44;8.20;99.90
6843;DHT22;3460;52.028;8.916;2023-10-19T03:51:12;8.20;99.90
6843;DHT22;3460;52.028;8.916;2023-10-19T03:53:40;8.20;99.90
6843;DHT22;3460;52.028;8.916;2023-10-19T03:56:11;8.20;99.90
6843;DHT22;3460;52.028;8.916;2023-10-19T03:58:38;8.20;99.90
6843;DHT22;3460;52.028;8.916;2023-10-19T04:01:09;8.20;99.90
6843;DHT22;3460;52.028;8.916;2023-10-19T04:03:36;8.20;99.90
6843;DHT22;3460;52.028;8.916;2023-10-19T04:06:03;8.20;99.90
6843;DHT22;3460;52.028;8.916;2023-10-19T04:08:30;8.20;99.90
6843;DHT22;3460;52.028;8.916;2023-10-19T04:11:02;8.20;99.90
6843;DHT22;3460;52.028;8.916;2023-10-19T04:13:37;8.20;99.90
6843;DHT22;3460;52.028;8.916;2023-10-19T04:16:04;8.20;99.90
6843;DHT22;3460;52.028;8.916;2023-10-19T04:18:35;8.20;99.90
6843;DHT22;3460;52.028;8.916;2023-10-19T04:21:05;8.20;99.90
6843;DHT22;3460;52.028;8.916;2023-10-19T04:23:32;8.20;99.90
6843;DHT22;3460;52.028;8.916;2023-10-19T04:26:02;8.20;99.90
6843;DHT22;3460;52.028;8.916;2023-10-19T04:28:36;8.20;99.90
6843;DHT22;3460;52.028;8.916;2023-10-19T04:31:10;8.20;99.90
6843;DHT22;3460;52.028;8.916;2023-10-19T04:33:41;8.20;99.90
6843;DHT22;3460;52.028;8.916;2023-10-19T04:36:12;8.30;99.90
6843;DHT22;3460;52.028;8.916;2023-10-19T04:38:39;8.30;99.90
6843;DHT22;3460;52.028;8.916;2023-10-19T04:41:06;8.30;99.90
6843;DHT22;3460;52.028;8.916;2023-10-19T04:43:34;8.30;99.90
6843;DHT22;3460;52.028;8.916;2023-10-19T04:46:05;8.30;99.90
6843;DHT22;3460;52.028;8.916;2023-10-19T04:48:36;8.30;99.90
6843;DHT22;3460;52.028;8.916;2023-10-19T04:51:06;8.40;99.90
6843;DHT22;3460;52.028;8.916;2023-10-19T04:53:34;8.40;99.90
6843;DHT22;3460;52.028;8.916;2023-10-19T04:56:02;8.40;99.90
6843;DHT22;3460;52.028;8.916;2023-10-19T04:58:30;8.40;99.90
6843;DHT22;3460;52.028;8.916;2023-10-19T05:00:57;8.50;99.90
6843;DHT22;3460;52.028;8.916;2023-10-19T05:03:25;8.50;99.90
6843;DHT22;3460;52.028;8.916;2023-10-19T05:05:51;8.50;99.90
6843;DHT22;3460;52.028;8.916;2023-10-19T05:08:20;8.50;99.90
6843;DHT22;3460;52.028;8.916;2023-10-19T05:10:51;8.60;99.90
6843;DHT22;3460;52.028;8.916;2023-10-19T05:13:18;8.50;99.90
6843;DHT22;3460;52.028;8.916;2023-10-19T05:15:44;8.50;99.90
6843;DHT22;3460;52.028;8.916;2023-10-19T05:18:11;8.60;99.90
6843;DHT22;3460;52.028;8.916;2023-10-19T05:20:39;8.60;99.90
6843;DHT22;3460;52.028;8.916;2023-10-19T05:23:07;8.60;99.90
6843;DHT22;3460;52.028;8.916;2023-10-19T05:25:35;8.60;99.90
6843;DHT22;3460;52.028;8.916;2023-10-19T05:28:04;8.70;99.90
6843;DHT22;3460;52.028;8.916;2023-10-19T05:30:31;8.70;99.90
6843;DHT22;3460;52.028;8.916;2023-10-19T05:32:58;8.70;99.90
6843;DHT22;3460;52.028;8.916;2023-10-19T05:35:27;8.70;99.90
6843;DHT22;3460;52.028;8.916;2023-10-19T05:37:55;8.70;99.90
6843;DHT22;3460;52.028;8.916;2023-10-19T05:40:23;8.70;99.90
6843;DHT22;3460;52.028;8.916;2023-10-19T05:42:56;8.70;99.90
6843;DHT22;3460;52.028;8.916;2023-10-19T05:45:24;8.80;99.90
6843;DHT22;3460;52.028;8.916;2023-10-19T05:47:52;8.80;99.90
6843;DHT22;3460;52.028;8.916;2023-10-19T05:50:19;8.80;99.90
6843;DHT22;3460;52.028;8.916;2023-10-19T05:52:46;8.80;99.90
6843;DHT22;3460;52.028;8.916;2023-10-19T05:55:14;8.80;99.90
6843;DHT22;3460;52.028;8.916;2023-10-19T05:57:41;8.80;99.90
6843;DHT22;3460;52.028;8.916;2023-10-19T06:00:11;8.80;99.90
6843;DHT22;3460;52.028;8.916;2023-10-19T06:02:44;8.90;99.90
6843;DHT22;3460;52.028;8.916;2023-10-19T06:05:11;8.90;99.90
6843;DHT22;3460;52.028;8.916;2023-10-19T06:07:41;8.90;99.90
6843;DHT22;3460;52.028;8.916;2023-10-19T06:10:08;9.00;99.90
6843;DHT22;3460;52.028;8.916;2023-10-19T06:12:41;9.00;99.90
6843;DHT22;3460;52.028;8.916;2023-10-19T06:15:10;9.10;99.90
6843;DHT22;3460;52.028;8.916;2023-10-19T06:17:38;9.10;99.90
6843;DHT22;3460;52.028;8.916;2023-10-19T06:20:07;9.10;99.90
6843;DHT22;3460;52.028;8.916;2023-10-19T06:22:34;9.10;99.90
6843;DHT22;3460;52.028;8.916;2023-10-19T06:25:01;9.20;99.90
6843;DHT22;3460;52.028;8.916;2023-10-19T06:27:30;9.20;99.90
6843;DHT22;3460;52.028;8.916;2023-10-19T06:29:57;9.20;99.90
6843;DHT22;3460;52.028;8.916;2023-10-19T06:32:25;9.30;99.90
6843;DHT22;3460;52.028;8.916;2023-10-19T06:34:52;9.30;99.90
6843;DHT22;3460;52.028;8.916;2023-10-19T06:37:19;9.30;99.90
6843;DHT22;3460;52.028;8.916;2023-10-19T06:39:46;9.40;99.90
6843;DHT22;3460;52.028;8.916;2023-10-19T06:42:16;9.40;99.90
6843;DHT22;3460;52.028;8.916;2023-10-19T06:44:43;9.40;99.90
6843;DHT22;3460;52.028;8.916;2023-10-19T06:47:10;9.40;99.90
6843;DHT22;3460;52.028;8.916;2023-10-19T06:49:39;9.40;99.90
6843;DHT22;3460;52.028;8.916;2023-10-19T06:52:06;9.40;99.90
6843;DHT22;3460;52.028;8.916;2023-10-19T06:54:37;9.50;99.90
6843;DHT22;3460;52.028;8.916;2023-10-19T06:57:04;9.50;99.90
6843;DHT22;3460;52.028;8.916;2023-10-19T06:59:33;9.50;99.90
6843;DHT22;3460;52.028;8.916;2023-10-19T07:02:00;9.50;99.90
6843;DHT22;3460;52.028;8.916;2023-10-19T07:04:28;9.60;99.90
6843;DHT22;3460;52.028;8.916;2023-10-19T07:06:56;9.60;99.90
6843;DHT22;3460;52.028;8.916;2023-10-19T07:09:23;9.60;99.90
6843;DHT22;3460;52.028;8.916;2023-10-19T07:11:50;9.60;99.90
6843;DHT22;3460;52.028;8.916;2023-10-19T07:14:20;9.70;99.90
6843;DHT22;3460;52.028;8.916;2023-10-19T07:16:49;9.70;99.90
6843;DHT22;3460;52.028;8.916;2023-10-19T07:19:17;9.70;99.90
6843;DHT22;3460;52.028;8.916;2023-10-19T07:21:43;9.80;99.90
6843;DHT22;3460;52.028;8.916;2023-10-19T07:24:16;9.80;99.90
6843;DHT22;3460;52.028;8.916;2023-10-19T07:26:45;9.80;99.90
6843;DHT22;3460;52.028;8.916;2023-10-19T07:29:27;9.80;99.90
6843;DHT22;3460;52.028;8.916;2023-10-19T07:31:55;9.90;99.90
6843;DHT22;3460;52.028;8.916;2023-10-19T07:34:23;9.90;99.90
6843;DHT22;3460;52.028;8.916;2023-10-19T07:36:53;10.00;99.90
6843;DHT22;3460;52.028;8.916;2023-10-19T07:39:22;10.00;99.90
6843;DHT22;3460;52.028;8.916;2023-10-19T07:41:50;10.00;99.90
6843;DHT22;3460;52.028;8.916;2023-10-19T07:44:17;10.00;99.90
6843;DHT22;3460;52.028;8.916;2023-10-19T07:46:43;10.10;99.90
6843;DHT22;3460;52.028;8.916;2023-10-19T07:49:10;10.20;99.90
6843;DHT22;3460;52.028;8.916;2023-10-19T07:51:41;10.20;99.90
6843;DHT22;3460;52.028;8.916;2023-10-19T07:54:11;10.30;99.90
6843;DHT22;3460;52.028;8.916;2023-10-19T07:56:39;10.30;99.90
6843;DHT22;3460;52.028;8.916;2023-10-19T07:59:06;10.40;99.90
6843;DHT22;3460;52.028;8.916;2023-10-19T08:01:33;10.40;99.90
6843;DHT22;3460;52.028;8.916;2023-10-19T08:04:00;10.40;99.90
6843;DHT22;3460;52.028;8.916;2023-10-19T08:06:27;10.40;99.90
6843;DHT22;3460;52.028;8.916;2023-10-19T08:08:54;10.50;99.90
6843;DHT22;3460;52.028;8.916;2023-10-19T08:11:21;10.50;99.90
6843;DHT22;3460;52.028;8.916;2023-10-19T08:13:50;10.50;99.90
6843;DHT22;3460;52.028;8.916;2023-10-19T08:16:16;10.50;99.90
6843;DHT22;3460;52.028;8.916;2023-10-19T08:18:43;10.50;99.90
6843;DHT22;3460;52.028;8.916;2023-10-19T08:21:10;10.60;99.90
6843;DHT22;3460;52.028;8.916;2023-10-19T08:23:38;10.60;99.90
6843;DHT22;3460;52.028;8.916;2023-10-19T08:26:05;10.60;99.90
6843;DHT22;3460;52.028;8.916;2023-10-19T08:28:32;10.60;99.90
6843;DHT22;3460;52.028;8.916;2023-10-19T08:31:00;10.70;99.90
6843;DHT22;3460;52.028;8.916;2023-10-19T08:33:28;10.70;99.90
6843;DHT22;3460;52.028;8.916;2023-10-19T08:35:56;10.80;99.90
6843;DHT22;3460;52.028;8.916;2023-10-19T08:38:23;10.70;99.90
6843;DHT22;3460;52.028;8.916;2023-10-19T08:40:51;10.70;99.90
6843;DHT22;3460;52.028;8.916;2023-10-19T08:43:18;10.70;99.90
6843;DHT22;3460;52.028;8.916;2023-10-19T08:45:45;10.80;99.90
6843;DHT22;3460;52.028;8.916;2023-10-19T08:48:13;10.90;99.90
6843;DHT22;3460;52.028;8.916;2023-10-19T08:50:40;10.90;99.90
6843;DHT22;3460;52.028;8.916;2023-10-19T08:53:09;11.00;99.90
6843;DHT22;3460;52.028;8.916;2023-10-19T08:55:39;11.10;99.90
6843;DHT22;3460;52.028;8.916;2023-10-19T08:58:06;11.20;99.90
6843;DHT22;3460;52.028;8.916;2023-10-19T09:00:43;11.30;99.90
6843;DHT22;3460;52.028;8.916;2023-10-19T09:03:14;11.30;99.90
6843;DHT22;3460;52.028;8.916;2023-10-19T09:05:42;11.40;99.90
6843;DHT22;3460;52.028;8.916;2023-10-19T09:08:14;11.50;99.90
6843;DHT22;3460;52.028;8.916;2023-10-19T09:10:43;11.60;99.90
6843;DHT22;3460;52.028;8.916;2023-10-19T09:13:11;11.60;99.90
6843;DHT22;3460;52.028;8.916;2023-10-19T09:15:41;11.60;99.90
6843;DHT22;3460;52.028;8.916;2023-10-19T09:18:16;11.70;99.90
6843;DHT22;3460;52.028;8.916;2023-10-19T09:20:45;11.70;99.90
6843;DHT22;3460;52.028;8.916;2023-10-19T09:23:22;11.80;99.90
6843;DHT22;3460;52.028;8.916;2023-10-19T09:25:51;11.90;99.90
6843;DHT22;3460;52.028;8.916;2023-10-19T09:28:19;11.90;99.90
6843;DHT22;3460;52.028;8.916;2023-10-19T09:30:46;12.00;99.90
6843;DHT22;3460;52.028;8.916;2023-10-19T09:33:16;12.10;99.90
6843;DHT22;3460;52.028;8.916;2023-10-19T09:35:45;12.20;99.90
6843;DHT22;3460;52.028;8.916;2023-10-19T09:38:14;12.20;99.90
6843;DHT22;3460;52.028;8.916;2023-10-19T09:40:41;12.30;99.90
6843;DHT22;3460;52.028;8.916;2023-10-19T09:43:21;12.30;99.90
6843;DHT22;3460;52.028;8.916;2023-10-19T09:45:51;12.30;99.90
6843;DHT22;3460;52.028;8.916;2023-10-19T09:48:21;12.30;99.90
6843;DHT22;3460;52.028;8.916;2023-10-19T09:50:52;12.30;99.90
6843;DHT22;3460;52.028;8.916;2023-10-19T09:53:22;12.30;99.90
6843;DHT22;3460;52.028;8.916;2023-10-19T09:55:50;12.30;99.90
6843;DHT22;3460;52.028;8.916;2023-10-19T09:58:23;12.30;99.90
6843;DHT22;3460;52.028;8.916;2023-10-19T10:00:51;12.30;99.90
6843;DHT22;3460;52.028;8.916;2023-10-19T10:03:44;12.40;99.90
6843;DHT22;3460;52.028;8.916;2023-10-19T10:06:12;12.40;99.90
6843;DHT22;3460;52.028;8.916;2023-10-19T10:08:40;12.50;99.90
6843;DHT22;3460;52.028;8.916;2023-10-19T10:11:18;12.40;99.90
6843;DHT22;3460;52.028;8.916;2023-10-19T10:13:46;12.40;99.90
6843;DHT22;3460;52.028;8.916;2023-10-19T10:16:17;12.50;99.90
6843;DHT22;3460;52.028;8.916;2023-10-19T10:18:47;12.50;99.90
6843;DHT22;3460;52.028;8.916;2023-10-19T10:21:17;12.50;99.90
6843;DHT22;3460;52.028;8.916;2023-10-19T10:23:47;12.60;99.90
6843;DHT22;3460;52.028;8.916;2023-10-19T10:26:15;12.60;99.90
6843;DHT22;3460;52.028;8.916;2023-10-19T10:28:47;12.60;99.90
6843;DHT22;3460;52.028;8.916;2023-10-19T10:31:18;12.70;99.90
6843;DHT22;3460;52.028;8.916;2023-10-19T10:33:48;12.60;99.90
6843;DHT22;3460;52.028;8.916;2023-10-19T10:36:17;12.70;99.90
6843;DHT22;3460;52.028;8.916;2023-10-19T10:38:45;12.70;99.90
6843;DHT22;3460;52.028;8.916;2023-10-19T10:41:12;12.60;99.90
6843;DHT22;3460;52.028;8.916;2023-10-19T10:43:52;12.50;99.90
6843;DHT22;3460;52.028;8.916;2023-10-19T10:46:20;12.60;99.90
6843;DHT22;3460;52.028;8.916;2023-10-19T10:48:49;12.60;99.90
6843;DHT22;3460;52.028;8.916;2023-10-19T10:51:18;12.70;99.90
6843;DHT22;3460;52.028;8.916;2023-10-19T10:53:53;12.70;99.90
6843;DHT22;3460;52.028;8.916;2023-10-19T10:56:21;12.80;99.90
6843;DHT22;3460;52.028;8.916;2023-10-19T10:58:49;12.70;99.90
6843;DHT22;3460;52.028;8.916;2023-10-19T11:01:27;12.90;99.90
6843;DHT22;3460;52.028;8.916;2023-10-19T11:04:07;12.90;99.90
6843;DHT22;3460;52.028;8.916;2023-10-19T11:06:47;12.90;99.90
6843;DHT22;3460;52.028;8.916;2023-10-19T11:09:14;13.00;99.90
6843;DHT22;3460;52.028;8.916;2023-10-19T11:11:44;13.00;99.90
6843;DHT22;3460;52.028;8.916;2023-10-19T11:14:11;13.00;99.90
6843;DHT22;3460;52.028;8.916;2023-10-19T11:16:39;13.00;99.90
6843;DHT22;3460;52.028;8.916;2023-10-19T11:19:07;13.20;99.90
6843;DHT22;3460;52.028;8.916;2023-10-19T11:21:35;13.20;99.90
6843;DHT22;3460;52.028;8.916;2023-10-19T11:24:02;13.40;99.90
6843;DHT22;3460;52.028;8.916;2023-10-19T11:26:29;13.50;99.90
6843;DHT22;3460;52.028;8.916;2023-10-19T11:28:57;13.70;99.90
6843;DHT22;3460;52.028;8.916;2023-10-19T11:31:24;13.80;99.90
6843;DHT22;3460;52.028;8.916;2023-10-19T11:33:53;13.80;99.90
6843;DHT22;3460;52.028;8.916;2023-10-19T11:36:22;13.80;99.90
6843;DHT22;3460;52.028;8.916;2023-10-19T11:38:51;13.80;99.90
6843;DHT22;3460;52.028;8.916;2023-10-19T11:41:19;13.80;99.90
6843;DHT22;3460;52.028;8.916;2023-10-19T11:43:47;13.80;99.90
6843;DHT22;3460;52.028;8.916;2023-10-19T11:46:15;13.70;99.90
6843;DHT22;3460;52.028;8.916;2023-10-19T11:48:43;13.80;99.90
6843;DHT22;3460;52.028;8.916;2023-10-19T11:51:11;13.90;99.90
6843;DHT22;3460;52.028;8.916;2023-10-19T11:53:41;13.90;99.90
6843;DHT22;3460;52.028;8.916;2023-10-19T11:56:11;14.00;99.90
6843;DHT22;3460;52.028;8.916;2023-10-19T11:58:38;14.20;99.90
6843;DHT22;3460;52.028;8.916;2023-10-19T12:01:08;14.20;99.90
6843;DHT22;3460;52.028;8.916;2023-10-19T12:03:37;14.20;99.90
6843;DHT22;3460;52.028;8.916;2023-10-19T12:06:06;14.10;99.90
6843;DHT22;3460;52.028;8.916;2023-10-19T12:08:32;14.20;99.90
6843;DHT22;3460;52.028;8.916;2023-10-19T12:11:01;14.20;99.90
6843;DHT22;3460;52.028;8.916;2023-10-19T12:13:29;14.40;99.90
6843;DHT22;3460;52.028;8.916;2023-10-19T12:15:56;14.40;99.90
6843;DHT22;3460;52.028;8.916;2023-10-19T12:18:24;14.40;99.90
6843;DHT22;3460;52.028;8.916;2023-10-19T12:20:51;14.50;99.90
6843;DHT22;3460;52.028;8.916;2023-10-19T12:23:22;14.60;99.90
6843;DHT22;3460;52.028;8.916;2023-10-19T12:25:49;14.70;99.90
6843;DHT22;3460;52.028;8.916;2023-10-19T12:28:18;14.70;99.90
6843;DHT22;3460;52.028;8.916;2023-10-19T12:30:46;14.70;99.90
6843;DHT22;3460;52.028;8.916;2023-10-19T12:33:13;14.60;99.90
6843;DHT22;3460;52.028;8.916;2023-10-19T12:35:41;14.60;99.90
6843;DHT22;3460;52.028;8.916;2023-10-19T12:38:15;14.60;99.90
6843;DHT22;3460;52.028;8.916;2023-10-19T12:40:43;14.60;99.90
6843;DHT22;3460;52.028;8.916;2023-10-19T12:43:12;14.60;99.90
6843;DHT22;3460;52.028;8.916;2023-10-19T12:45:40;14.60;99.90
6843;DHT22;3460;52.028;8.916;2023-10-19T12:48:09;14.60;99.90
6843;DHT22;3460;52.028;8.916;2023-10-19T12:50:37;14.60;99.90
6843;DHT22;3460;52.028;8.916;2023-10-19T12:53:04;14.60;99.90
6843;DHT22;3460;52.028;8.916;2023-10-19T12:55:32;14.70;99.90
6843;DHT22;3460;52.028;8.916;2023-10-19T12:58:00;14.80;99.90
6843;DHT22;3460;52.028;8.916;2023-10-19T13:00:33;14.80;99.90
6843;DHT22;3460;52.028;8.916;2023-10-19T13:03:08;14.80;99.90
6843;DHT22;3460;52.028;8.916;2023-10-19T13:05:39;14.90;99.90
6843;DHT22;3460;52.028;8.916;2023-10-19T13:08:07;14.90;99.90
6843;DHT22;3460;52.028;8.916;2023-10-19T13:10:35;15.00;99.90
6843;DHT22;3460;52.028;8.916;2023-10-19T13:13:04;15.00;99.90
6843;DHT22;3460;52.028;8.916;2023-10-19T13:15:31;15.00;99.90
6843;DHT22;3460;52.028;8.916;2023-10-19T13:18:00;15.10;99.90
6843;DHT22;3460;52.028;8.916;2023-10-19T13:20:29;15.10;99.90
6843;DHT22;3460;52.028;8.916;2023-10-19T13:22:59;15.20;99.90
6843;DHT22;3460;52.028;8.916;2023-10-19T13:25:26;15.30;99.90
6843;DHT22;3460;52.028;8.916;2023-10-19T13:28:07;15.30;99.90
6843;DHT22;3460;52.028;8.916;2023-10-19T13:30:39;15.40;99.90
6843;DHT22;3460;52.028;8.916;2023-10-19T13:33:06;15.40;99.90
6843;DHT22;3460;52.028;8.916;2023-10-19T13:35:36;15.50;99.90
6843;DHT22;3460;52.028;8.916;2023-10-19T13:38:04;15.60;99.90
6843;DHT22;3460;52.028;8.916;2023-10-19T13:40:31;15.50;99.90
6843;DHT22;3460;52.028;8.916;2023-10-19T13:42:58;15.60;99.90
6843;DHT22;3460;52.028;8.916;2023-10-19T13:45:26;15.60;99.90
6843;DHT22;3460;52.028;8.916;2023-10-19T13:47:52;15.60;99.90
6843;DHT22;3460;52.028;8.916;2023-10-19T13:50:22;15.50;99.90
6843;DHT22;3460;52.028;8.916;2023-10-19T13:52:51;15.60;99.90
6843;DHT22;3460;52.028;8.916;2023-10-19T13:55:19;15.50;99.90
6843;DHT22;3460;52.028;8.916;2023-10-19T13:57:46;15.60;99.90
6843;DHT22;3460;52.028;8.916;2023-10-19T14:00:14;15.70;99.90
6843;DHT22;3460;52.028;8.916;2023-10-19T14:02:45;15.60;99.90
6843;DHT22;3460;52.028;8.916;2023-10-19T14:05:13;15.70;99.90
6843;DHT22;3460;52.028;8.916;2023-10-19T14:07:40;15.70;99.90
6843;DHT22;3460;52.028;8.916;2023-10-19T14:10:10;15.70;99.90
6843;DHT22;3460;52.028;8.916;2023-10-19T14:12:38;15.70;99.90
6843;DHT22;3460;52.028;8.916;2023-10-19T14:15:12;15.60;99.90
6843;DHT22;3460;52.028;8.916;2023-10-19T14:17:39;15.60;99.90
6843;DHT22;3460;52.028;8.916;2023-10-19T14:20:07;15.50;99.90
6843;DHT22;3460;52.028;8.916;2023-10-19T14:22:39;15.40;99.90
6843;DHT22;3460;52.028;8.916;2023-10-19T14:25:06;15.40;99.90
6843;DHT22;3460;52.028;8.916;2023-10-19T14:27:39;15.40;99.90
6843;DHT22;3460;52.028;8.916;2023-10-19T14:30:07;15.40;99.90
6843;DHT22;3460;52.028;8.916;2023-10-19T14:32:37;15.40;99.90
6843;DHT22;3460;52.028;8.916;2023-10-19T14:35:05;15.40;99.90
6843;DHT22;3460;52.028;8.916;2023-10-19T14:37:35;15.40;99.90
6843;DHT22;3460;52.028;8.916;2023-10-19T14:40:06;15.30;99.90
6843;DHT22;3460;52.028;8.916;2023-10-19T14:42:35;15.20;99.90
6843;DHT22;3460;52.028;8.916;2023-10-19T14:45:08;15.30;99.90
6843;DHT22;3460;52.028;8.916;2023-10-19T14:47:36;15.40;99.90
6843;DHT22;3460;52.028;8.916;2023-10-19T14:50:07;15.40;99.90
6843;DHT22;3460;52.028;8.916;2023-10-19T14:52:34;15.30;99.90
6843;DHT22;3460;52.028;8.916;2023-10-19T14:55:01;15.30;99.90
6843;DHT22;3460;52.028;8.916;2023-10-19T14:57:27;15.30;99.90
6843;DHT22;3460;52.028;8.916;2023-10-19T14:59:54;15.30;99.90
6843;DHT22;3460;52.028;8.916;2023-10-19T15:02:23;15.30;99.90
6843;DHT22;3460;52.028;8.916;2023-10-19T15:04:49;15.20;99.90
6843;DHT22;3460;52.028;8.916;2023-10-19T15:07:17;15.30;99.90
6843;DHT22;3460;52.028;8.916;2023-10-19T15:09:44;15.20;99.90
6843;DHT22;3460;52.028;8.916;2023-10-19T15:12:11;15.20;99.90
6843;DHT22;3460;52.028;8.916;2023-10-19T15:14:40;15.20;99.90
6843;DHT22;3460;52.028;8.916;2023-10-19T15:17:08;15.10;99.90
6843;DHT22;3460;52.028;8.916;2023-10-19T15:19:37;15.10;99.90
6843;DHT22;3460;52.028;8.916;2023-10-19T15:22:04;15.10;99.90
6843;DHT22;3460;52.028;8.916;2023-10-19T15:24:31;15.10;99.90
6843;DHT22;3460;52.028;8.916;2023-10-19T15:26:58;15.10;99.90
6843;DHT22;3460;52.028;8.916;2023-10-19T15:29:26;15.10;99.90
6843;DHT22;3460;52.028;8.916;2023-10-19T15:31:54;15.00;99.90
6843;DHT22;3460;52.028;8.916;2023-10-19T15:34:22;15.00;99.90
6843;DHT22;3460;52.028;8.916;2023-10-19T15:36:50;15.00;99.90
6843;DHT22;3460;52.028;8.916;2023-10-19T15:39:17;15.00;99.90
6843;DHT22;3460;52.028;8.916;2023-10-19T15:41:44;15.00;99.90
6843;DHT22;3460;52.028;8.916;2023-10-19T15:44:11;15.00;99.90
6843;DHT22;3460;52.028;8.916;2023-10-19T15:46:38;15.00;99.90
6843;DHT22;3460;52.028;8.916;2023-10-19T15:49:08;15.10;99.90
6843;DHT22;3460;52.028;8.916;2023-10-19T15:51:35;15.00;99.90
6843;DHT22;3460;52.028;8.916;2023-10-19T15:54:03;15.00;99.90
6843;DHT22;3460;52.028;8.916;2023-10-19T15:56:31;15.00;99.90
6843;DHT22;3460;52.028;8.916;2023-10-19T15:58:58;15.00;99.90
6843;DHT22;3460;52.028;8.916;2023-10-19T16:01:25;15.00;99.90
6843;DHT22;3460;52.028;8.916;2023-10-19T16:03:52;14.90;99.90
6843;DHT22;3460;52.028;8.916;2023-10-19T16:06:18;15.00;99.90
6843;DHT22;3460;52.028;8.916;2023-10-19T16:08:45;15.00;99.90
6843;DHT22;3460;52.028;8.916;2023-10-19T16:11:13;15.00;99.90
6843;DHT22;3460;52.028;8.916;2023-10-19T16:13:41;14.90;99.90
6843;DHT22;3460;52.028;8.916;2023-10-19T16:16:09;14.90;99.90
6843;DHT22;3460;52.028;8.916;2023-10-19T16:18:38;14.90;99.90
6843;DHT22;3460;52.028;8.916;2023-10-19T16:21:05;14.90;99.90